Time;durP1;ratioP1;P1;durP2;ratioP2;P2;SDS_P1;SDS_P2;PMS_P1;PMS_P2;Temp;Humidity;BMP_temperature;BMP_pressure;BME280_temperature;BME280_humidity;BME280_pressure;Samples;Min_cycle;Max_cycle;Signal;HPM_P1;HPM_P2
2022/03/15 00:01:23;;;;;;;17.02;7.38;;;;;;;;;;4996957;28;20061;-68
2022/03/15 00:03:49;;;;;;;20.90;6.65;;;;;;;;;;4992948;28;20030;-67
2022/03/15 00:06:15;;;;;;;17.27;7.57;;;;;;;;;;4993264;28;20404;-68
2022/03/15 00:08:41;;;;;;;21.70;9.10;;;;;;;;;;5007868;28;20068;-67
2022/03/15 00:11:09;;;;;;;14.13;7.38;;;;;;;;;;5001295;28;20042;-67
2022/03/15 00:13:39;;;;;;;14.95;8.18;;;;;;;;;;4996860;28;20056;-66
2022/03/15 00:16:06;;;;;;;29.73;11.38;;;;;;;;;;4994791;28;20034;-66
2022/03/15 00:18:32;;;;;;;24.38;10.15;;;10.40;99.90;;;;;;4992336;28;20038;-67
2022/03/15 00:20:58;;;;;;;21.17;9.68;;;;;;;;;;5010708;28;20117;-67
2022/03/15 00:23:25;;;;;;;27.30;9.13;;;;;;;;;;5002596;28;20034;-68
2022/03/15 00:25:52;;;;;;;17.48;8.65;;;;;;;;;;5003418;28;20084;-67
2022/03/15 00:28:18;;;;;;;20.75;10.00;;;;;;;;;;5011988;28;20084;-68
2022/03/15 00:30:44;;;;;;;22.08;8.63;;;;;;;;;;5009754;28;20446;-67
2022/03/15 00:33:11;;;;;;;16.88;6.95;;;;;;;;;;5011804;28;20146;-67
2022/03/15 00:35:37;;;;;;;8.77;5.15;;;;;;;;;;5011450;28;20038;-67
2022/03/15 00:38:03;;;;;;;14.52;5.53;;;;;;;;;;5005449;28;20045;-67
2022/03/15 00:40:29;;;;;;;9.20;5.05;;;9.90;99.90;;;;;;4999975;28;20025;-67
2022/03/15 00:42:55;;;;;;;8.43;5.30;;;;;;;;;;4997015;28;20407;-68
2022/03/15 00:45:25;;;;;;;13.57;4.03;;;;;;;;;;4995897;28;20088;-67
2022/03/15 00:47:54;;;;;;;11.52;6.68;;;9.90;99.90;;;;;;4998862;28;20084;-67
2022/03/15 00:50:21;;;;;;;19.83;10.20;;;;;;;;;;4999764;28;20034;-67
2022/03/15 00:52:47;;;;;;;19.38;9.18;;;10.00;99.90;;;;;;5000049;28;20105;-67
2022/03/15 00:55:13;;;;;;;24.42;9.95;;;9.80;99.90;;;;;;4999235;28;20070;-68
2022/03/15 00:57:39;;;;;;;16.80;8.82;;;;;;;;;;4995213;28;20069;-67
2022/03/15 01:00:06;;;;;;;18.63;9.25;;;;;;;;;;4997432;28;20022;-67
2022/03/15 01:02:34;;;;;;;20.42;8.15;;;;;;;;;;5010051;28;20049;-68
2022/03/15 01:05:00;;;;;;;22.27;7.57;;;;;;;;;;5005392;28;20062;-69
2022/03/15 01:07:26;;;;;;;13.77;8.35;;;;;;;;;;5000028;28;20033;-67
2022/03/15 01:09:52;;;;;;;17.88;7.30;;;;;;;;;;4996236;28;20511;-67
2022/03/15 01:12:18;;;;;;;14.27;7.35;;;;;;;;;;4995516;28;20113;-67
2022/03/15 01:14:44;;;;;;;7.95;4.82;;;9.80;99.90;;;;;;4998837;28;20455;-67
2022/03/15 01:17:10;;;;;;;5.82;3.30;;;;;;;;;;4999640;28;20069;-66
2022/03/15 01:19:36;;;;;;;7.53;3.35;;;;;;;;;;4999665;28;20026;-68
2022/03/15 01:22:02;;;;;;;5.95;3.70;;;;;;;;;;4997001;28;20108;-66
2022/03/15 01:24:28;;;;;;;9.90;4.47;;;;;;;;;;4994841;28;20452;-66
2022/03/15 01:26:54;;;;;;;8.13;4.53;;;;;;;;;;5011369;28;20406;-66
2022/03/15 01:29:22;;;;;;;19.23;6.20;;;;;;;;;;5008352;28;20026;-67
2022/03/15 01:31:48;;;;;;;;;;;;;;;;;;5009577;28;20109;-68
2022/03/15 01:34:14;;;;;;;11.55;5.97;;;;;;;;;;5010235;28;19984;-68
2022/03/15 01:36:40;;;;;;;18.13;7.80;;;;;;;;;;4994368;28;20034;-67
2022/03/15 01:39:06;;;;;;;23.52;8.02;;;;;;;;;;5011072;28;20034;-67
2022/03/15 01:41:35;;;;;;;20.98;9.65;;;;;;;;;;5009854;28;20038;-68
2022/03/15 01:44:01;;;;;;;23.75;9.45;;;;;;;;;;5003914;28;20042;-67
2022/03/15 01:46:27;;;;;;;21.08;10.48;;;;;;;;;;4998628;28;20483;-67
2022/03/15 01:48:53;;;;;;;23.90;9.80;;;9.50;99.90;;;;;;4995542;28;20032;-67
2022/03/15 01:51:19;;;;;;;15.88;7.47;;;;;;;;;;4994765;28;20049;-67
2022/03/15 01:53:45;;;;;;;13.43;8.02;;;;;;;;;;5009818;28;20091;-66
2022/03/15 01:56:11;;;;;;;19.88;7.22;;;;;;;;;;5002321;28;20487;-67
2022/03/15 01:58:36;;;;;;;20.90;8.48;;;9.70;99.90;;;;;;4998565;28;20048;-67
2022/03/15 02:01:03;;;;;;;21.33;8.02;;;;;;;;;;4995001;28;20521;-67
2022/03/15 02:03:30;;;;;;;16.58;7.28;;;;;;;;;;5009876;28;20034;-66
2022/03/15 02:05:56;;;;;;;;;;;;;;;;;;4995917;28;20022;-66
2022/03/15 02:08:22;;;;;;;18.02;7.15;;;9.90;99.90;;;;;;4998248;28;19963;-68
2022/03/15 02:10:48;;;;;;;19.27;7.65;;;;;;;;;;4998490;28;20400;-67
2022/03/15 02:13:13;;;;;;;16.63;8.05;;;9.80;99.90;;;;;;4997829;28;20018;-68
2022/03/15 02:15:39;;;;;;;18.67;7.40;;;9.70;99.90;;;;;;4993460;28;20030;-67
2022/03/15 02:18:05;;;;;;;19.08;7.25;;;;;;;;;;5010459;28;20054;-67
2022/03/15 02:20:32;;;;;;;21.73;9.90;;;;;;;;;;4999599;28;20026;-66
2022/03/15 02:22:57;;;;;;;19.27;7.78;;;;;;;;;;5003463;28;20049;-67
2022/03/15 02:25:26;;;;;;;16.23;8.77;;;;;;;;;;5008409;28;20029;-66
2022/03/15 02:27:53;;;;;;;16.25;6.13;;;;;;;;;;4994757;28;20133;-66
2022/03/15 02:30:21;;;;;;;10.65;4.30;;;;;;;;;;4993556;28;20065;-66
2022/03/15 02:32:48;;;;;;;18.48;6.50;;;;;;;;;;5008844;28;20045;-67
2022/03/15 02:35:14;;;;;;;11.32;7.47;;;;;;;;;;5001377;28;20030;-66
2022/03/15 02:37:40;;;;;;;11.45;5.53;;;;;;;;;;4999656;28;20726;-66
2022/03/15 02:40:06;;;;;;;12.88;6.60;;;;;;;;;;5009230;28;20060;-67
2022/03/15 02:42:33;;;;;;;17.08;7.00;;;;;;;;;;4993055;28;20142;-66
2022/03/15 02:44:58;;;;;;;16.40;7.72;;;;;;;;;;4996183;28;20033;-68
2022/03/15 02:47:24;;;;;;;21.83;7.72;;;;;;;;;;5006098;28;20026;-67
2022/03/15 02:49:51;;;;;;;19.70;6.53;;;;;;;;;;5008461;28;20430;-66
2022/03/15 02:52:17;;;;;;;15.40;7.82;;;;;;;;;;5008767;28;20022;-68
2022/03/15 02:54:43;;;;;;;15.45;5.22;;;9.90;99.90;;;;;;4993547;28;20475;-67
2022/03/15 02:57:10;;;;;;;14.05;5.78;;;9.90;99.90;;;;;;5009787;28;20106;-68
2022/03/15 02:59:36;;;;;;;;;;;;;;;;;;4998402;28;20042;-67
2022/03/15 03:02:03;;;;;;;13.15;6.30;;;;;;;;;;4997244;28;19921;-66
2022/03/15 03:04:29;;;;;;;12.00;5.40;;;;;;;;;;4997266;28;20053;-67
2022/03/15 03:06:55;;;;;;;15.75;7.03;;;;;;;;;;4994577;28;20061;-67
2022/03/15 03:09:21;;;;;;;15.75;6.18;;;;;;;;;;4992663;28;20413;-68
2022/03/15 03:11:47;;;;;;;12.40;6.22;;;;;;;;;;5007988;28;20048;-67
2022/03/15 03:14:13;;;;;;;11.38;6.03;;;9.80;99.90;;;;;;5001095;28;20032;-68
2022/03/15 03:16:41;;;;;;;18.73;7.43;;;;;;;;;;4997042;28;20054;-68
2022/03/15 03:19:08;;;;;;;12.98;6.75;;;9.70;99.90;;;;;;4995984;28;20083;-68
2022/03/15 03:21:36;;;;;;;13.73;6.95;;;9.80;99.90;;;;;;4995860;28;20036;-66
2022/03/15 03:24:06;;;;;;;9.95;6.05;;;;;;;;;;4994895;28;20034;-67
2022/03/15 03:26:34;;;;;;;13.50;5.20;;;;;;;;;;4996901;28;20034;-67
2022/03/15 03:29:00;;;;;;;9.30;5.15;;;;;;;;;;4997054;28;20052;-67
2022/03/15 03:31:26;;;;;;;10.60;5.25;;;;;;;;;;4997138;28;20022;-66
2022/03/15 03:33:52;;;;;;;13.85;7.13;;;;;;;;;;4993898;28;20042;-67
2022/03/15 03:36:18;;;;;;;15.60;7.60;;;;;;;;;;5008467;28;20113;-67
2022/03/15 03:38:44;;;;;;;12.18;8.15;;;;;;;;;;5008649;28;20109;-67
2022/03/15 03:41:10;;;;;;;21.15;8.32;;;;;;;;;;5000565;28;20094;-67
2022/03/15 03:43:36;;;;;;;13.73;7.05;;;;;;;;;;4997197;28;20097;-66
2022/03/15 03:46:02;;;;;;;15.57;7.00;;;;;;;;;;4994906;28;20125;-67
2022/03/15 03:48:28;;;;;;;15.07;7.43;;;;;;;;;;4992705;28;20023;-67
2022/03/15 03:50:54;;;;;;;16.30;7.32;;;;;;;;;;5009295;28;20037;-68
2022/03/15 03:53:21;;;;;;;10.82;6.50;;;;;;;;;;5008033;28;20033;-66
2022/03/15 03:55:47;;;;;;;13.18;6.40;;;;;;;;;;5009525;28;20034;-67
2022/03/15 03:58:13;;;;;;;14.20;5.65;;;;;;;;;;5011433;28;20109;-67
2022/03/15 04:00:39;;;;;;;12.13;5.35;;;;;;;;;;5012038;28;20105;-68
2022/03/15 04:03:06;;;;;;;8.63;5.07;;;;;;;;;;4998086;28;20121;-67
2022/03/15 04:05:36;;;;;;;13.68;5.22;;;;;;;;;;5000795;28;20034;-67
2022/03/15 04:08:03;;;;;;;6.97;4.03;;;;;;;;;;5000511;28;20061;-67
2022/03/15 04:10:30;;;;;;;11.27;3.97;;;10.00;99.90;;;;;;5000575;28;20025;-68
2022/03/15 04:12:56;;;;;;;9.57;4.15;;;;;;;;;;4998053;28;20072;-66
2022/03/15 04:15:23;;;;;;;17.35;5.22;;;;;;;;;;4996066;28;20034;-68
2022/03/15 04:17:49;;;;;;;9.98;4.78;;;9.90;99.90;;;;;;4999934;28;20393;-66
2022/03/15 04:20:15;;;;;;;8.88;4.63;;;10.20;99.90;;;;;;5008207;28;20053;-66
2022/03/15 04:22:41;;;;;;;9.10;5.05;;;;;;;;;;5008076;28;20069;-67
2022/03/15 04:25:07;;;;;;;11.20;4.47;;;;;;;;;;4997635;28;20029;-68
2022/03/15 04:27:33;;;;;;;11.90;5.35;;;;;;;;;;5011856;28;20030;-67
2022/03/15 04:29:59;;;;;;;11.07;5.68;;;;;;;;;;5012222;28;20110;-68
2022/03/15 04:32:25;;;;;;;13.38;6.18;;;;;;;;;;5011584;28;20029;-67
2022/03/15 04:34:51;;;;;;;16.40;6.57;;;;;;;;;;5011955;28;20059;-66
2022/03/15 04:37:19;;;;;;;14.02;6.65;;;;;;;;;;5011616;28;20018;-67
2022/03/15 04:39:45;;;;;;;17.00;7.13;;;;;;;;;;4996369;28;20042;-68
2022/03/15 04:42:11;;;;;;;12.35;5.22;;;;;;;;;;5007842;28;20041;-67
2022/03/15 04:44:37;;;;;;;7.72;4.63;;;;;;;;;;5000490;28;20036;-66
2022/03/15 04:47:03;;;;;;;9.68;3.70;;;;;;;;;;4999878;28;20084;-67
2022/03/15 04:49:29;;;;;;;9.50;4.97;;;9.70;99.90;;;;;;5000145;28;20022;-67
2022/03/15 04:51:55;;;;;;;6.60;3.92;;;9.80;99.90;;;;;;4996725;28;20121;-67
2022/03/15 04:54:21;;;;;;;6.78;4.32;;;;;;;;;;5011531;28;20037;-67
2022/03/15 04:56:47;;;;;;;10.45;4.30;;;;;;;;;;5011729;28;20084;-67
2022/03/15 04:59:13;;;;;;;16.98;4.57;;;;;;;;;;5011235;28;20041;-68
2022/03/15 05:01:39;;;;;;;11.88;3.95;;;10.10;99.90;;;;;;5008142;28;20026;-68
2022/03/15 05:04:04;;;;;;;7.32;3.00;;;10.00;99.90;;;;;;4997852;28;20384;-67
2022/03/15 05:06:30;;;;;;;6.07;3.10;;;;;;;;;;5009790;28;20052;-67
2022/03/15 05:08:56;;;;;;;8.07;3.83;;;;;;;;;;5011366;28;20697;-66
2022/03/15 05:11:22;;;;;;;7.05;4.05;;;;;;;;;;5010931;28;20091;-67
2022/03/15 05:13:49;;;;;;;10.93;4.97;;;10.20;99.90;;;;;;5006543;28;20431;-67
2022/03/15 05:16:19;;;;;;;6.80;3.83;;;;;;;;;;4998850;28;20026;-67
2022/03/15 05:18:45;;;;;;;10.68;4.68;;;;;;;;;;4993093;28;20022;-67
2022/03/15 05:21:16;;;;;;;6.97;4.50;;;;;;;;;;5018857;28;20511;-68
2022/03/15 05:23:42;;;;;;;8.05;4.20;;;;;;;;;;5010685;28;20049;-68
2022/03/15 05:26:07;;;;;;;7.18;3.05;;;10.00;99.90;;;;;;5003618;28;20562;-67
2022/03/15 05:28:33;;;;;;;6.57;3.15;;;;;;;;;;5001740;28;20038;-67
2022/03/15 05:30:59;;;;;;;6.93;3.22;;;10.00;99.90;;;;;;5010311;28;20025;-66
2022/03/15 05:33:25;;;;;;;4.60;2.22;;;10.00;99.90;;;;;;4994840;28;20101;-67
2022/03/15 05:35:51;;;;;;;5.40;2.80;;;10.00;99.90;;;;;;4998655;28;20031;-67
2022/03/15 05:38:17;;;;;;;7.35;3.45;;;;;;;;;;5006781;28;20038;-67
2022/03/15 05:40:43;;;;;;;6.72;3.50;;;10.00;99.90;;;;;;5006904;28;20034;-67
2022/03/15 05:43:08;;;;;;;4.40;2.65;;;10.10;99.90;;;;;;4997426;28;20041;-67
2022/03/15 05:45:34;;;;;;;9.52;2.70;;;;;;;;;;4993890;28;20042;-67
2022/03/15 05:48:00;;;;;;;4.45;2.63;;;;;;;;;;4997131;28;20030;-68
2022/03/15 05:50:26;;;;;;;5.45;2.85;;;;;;;;;;5007843;28;20574;-67
2022/03/15 05:52:52;;;;;;;8.25;3.10;;;;;;;;;;5009603;28;20161;-67
2022/03/15 05:55:20;;;;;;;3.53;2.17;;;;;;;;;;5010178;28;20116;-67
2022/03/15 05:57:47;;;;;;;5.97;2.90;;;;;;;;;;4994694;28;20716;-67
2022/03/15 06:00:13;;;;;;;3.85;2.15;;;10.00;99.90;;;;;;5006573;28;20097;-68
2022/03/15 06:02:40;;;;;;;4.05;2.40;;;;;;;;;;4999103;28;20034;-67
2022/03/15 06:05:06;;;;;;;6.13;2.72;;;;;;;;;;4998499;28;20033;-67
2022/03/15 06:07:32;;;;;;;4.85;2.92;;;;;;;;;;4998985;28;20034;-67
2022/03/15 06:09:58;;;;;;;6.03;2.50;;;;;;;;;;4993004;28;20054;-67
2022/03/15 06:12:25;;;;;;;8.60;3.38;;;9.90;99.90;;;;;;5010133;28;20053;-65
2022/03/15 06:14:51;;;;;;;9.73;3.72;;;;;;;;;;5010262;28;20026;-66
2022/03/15 06:17:17;;;;;;;13.85;4.03;;;;;;;;;;5001590;28;20093;-67
2022/03/15 06:19:43;;;;;;;3.35;1.85;;;10.10;99.90;;;;;;4997786;28;20030;-67
2022/03/15 06:22:09;;;;;;;7.57;2.78;;;9.90;99.90;;;;;;4996894;28;20030;-66
2022/03/15 06:24:34;;;;;;;4.85;2.60;;;10.20;99.90;;;;;;4993811;28;20140;-68
2022/03/15 06:27:01;;;;;;;5.65;4.10;;;;;;;;;;4995264;28;20058;-68
2022/03/15 06:29:27;;;;;;;7.28;2.88;;;;;;;;;;4998003;28;20522;-67
2022/03/15 06:31:53;;;;;;;8.68;4.43;;;10.10;99.90;;;;;;4998043;28;20065;-67
2022/03/15 06:34:20;;;;;;;3.50;2.28;;;;;;;;;;4997839;28;20406;-67
2022/03/15 06:36:46;;;;;;;3.70;2.53;;;;;;;;;;4993722;28;20029;-67
2022/03/15 06:39:12;;;;;;;5.30;2.08;;;;;;;;;;5005795;28;20030;-67
2022/03/15 06:41:39;;;;;;;6.57;2.53;;;;;;;;;;5004621;28;20030;-67
2022/03/15 06:44:06;;;;;;;5.43;2.03;;;;;;;;;;5003352;28;20037;-67
2022/03/15 06:46:32;;;;;;;4.95;2.95;;;;;;;;;;5000103;28;20030;-67
2022/03/15 06:48:58;;;;;;;6.70;4.22;;;;;;;;;;5007388;28;20137;-67
2022/03/15 06:51:24;;;;;;;4.35;2.92;;;;;;;;;;5005383;28;20073;-67
2022/03/15 06:53:50;;;;;;;7.78;4.20;;;;;;;;;;5006351;28;20018;-67
2022/03/15 06:56:16;;;;;;;5.05;3.30;;;;;;;;;;5002745;28;20089;-67
2022/03/15 06:58:43;;;;;;;4.28;3.25;;;;;;;;;;5006257;28;20044;-69
2022/03/15 07:01:09;;;;;;;5.85;3.10;;;;;;;;;;5005380;28;20459;-67
2022/03/15 07:03:36;;;;;;;4.63;2.95;;;;;;;;;;5005296;28;20061;-67
2022/03/15 07:06:02;;;;;;;7.10;3.72;;;;;;;;;;5005816;28;20112;-68
2022/03/15 07:08:28;;;;;;;5.05;3.10;;;;;;;;;;5006009;28;20046;-67
2022/03/15 07:10:54;;;;;;;4.47;2.13;;;;;;;;;;5004422;28;20044;-67
2022/03/15 07:13:20;;;;;;;8.48;2.00;;;;;;;;;;5001036;28;20026;-67
2022/03/15 07:15:46;;;;;;;2.60;2.00;;;;;;;;;;5006809;28;20034;-72
2022/03/15 07:18:15;;;;;;;3.53;1.58;;;;;;;;;;4991003;28;20084;-68
2022/03/15 07:20:41;;;;;;;5.25;3.05;;;10.30;99.90;;;;;;4996727;28;20579;-70
2022/03/15 07:23:07;;;;;;;6.43;2.60;;;;;;;;;;4995909;28;20145;-70
2022/03/15 07:25:33;;;;;;;7.00;3.03;;;;;;;;;;4989235;28;20113;-70
2022/03/15 07:27:59;;;;;;;11.75;4.53;;;;;;;;;;4995228;28;20404;-69
2022/03/15 07:30:25;;;;;;;26.17;10.68;;;;;;;;;;5006515;28;20026;-69
2022/03/15 07:32:51;;;;;;;21.25;11.68;;;;;;;;;;5006940;28;20030;-70
2022/03/15 07:35:18;;;;;;;20.42;8.32;;;;;;;;;;5004846;28;20065;-69
2022/03/15 07:37:55;;;;;;;10.00;5.00;;;;;;;;;;5006158;28;20044;-69
2022/03/15 07:40:21;;;;;;;8.07;3.58;;;;;;;;;;5004779;28;20034;-69
2022/03/15 07:42:48;;;;;;;7.85;3.53;;;;;;;;;;5019306;28;20049;-69
2022/03/15 07:45:13;;;;;;;46.17;17.33;;;11.00;99.90;;;;;;5004383;28;20018;-69
2022/03/15 07:47:39;;;;;;;72.50;24.13;;;;;;;;;;4997601;28;20101;-70
2022/03/15 07:50:06;;;;;;;44.38;19.90;;;;;;;;;;4997221;28;20034;-69
2022/03/15 07:52:32;;;;;;;40.50;17.55;;;;;;;;;;5000955;28;20042;-69
2022/03/15 07:54:58;;;;;;;21.27;11.38;;;;;;;;;;4997625;28;20336;-70
2022/03/15 07:57:25;;;;;;;25.95;12.85;;;;;;;;;;5002827;28;20021;-70
2022/03/15 07:59:51;;;;;;;21.40;8.83;;;;;;;;;;5005293;28;20105;-71
2022/03/15 08:02:17;;;;;;;10.50;5.22;;;;;;;;;;5001716;28;20053;-70
2022/03/15 08:04:43;;;;;;;6.28;3.72;;;;;;;;;;4998538;28;20805;-70
2022/03/15 08:07:09;;;;;;;6.38;2.50;;;;;;;;;;4997450;28;20037;-69
2022/03/15 08:09:36;;;;;;;6.90;2.67;;;;;;;;;;5001657;28;20533;-69
2022/03/15 08:12:02;;;;;;;3.05;1.83;;;;;;;;;;5004569;28;20085;-69
2022/03/15 08:14:28;;;;;;;13.70;6.55;;;;;;;;;;4999354;28;20621;-69
2022/03/15 08:16:54;;;;;;;13.25;6.15;;;;;;;;;;5002347;28;20033;-68
2022/03/15 08:19:20;;;;;;;8.63;5.18;;;;;;;;;;5000925;28;20022;-69
2022/03/15 08:21:46;;;;;;;5.05;3.35;;;;;;;;;;5001014;28;20037;-69
2022/03/15 08:24:13;;;;;;;4.00;2.75;;;;;;;;;;5002008;28;20108;-71
2022/03/15 08:26:39;;;;;;;4.65;2.00;;;;;;;;;;5002507;28;20491;-69
2022/03/15 08:29:06;;;;;;;3.25;2.45;;;;;;;;;;5002000;28;20113;-73
2022/03/15 08:31:32;;;;;;;6.85;2.20;;;;;;;;;;5002540;28;20065;-73
2022/03/15 08:33:58;;;;;;;3.95;2.30;;;;;;;;;;4990451;28;20076;-72
2022/03/15 08:36:24;;;;;;;13.48;2.42;;;;;;;;;;5001647;28;20033;-71
2022/03/15 08:38:50;;;;;;;3.05;2.20;;;;;;;;;;4999567;28;20014;-72
2022/03/15 08:41:16;;;;;;;5.93;2.58;;;;;;;;;;5001847;28;20054;-68
2022/03/15 08:43:42;;;;;;;4.78;3.33;;;;;;;;;;4996176;28;21006;-71
2022/03/15 08:46:08;;;;;;;6.30;3.50;;;;;;;;;;4990871;28;21101;-67
2022/03/15 08:48:35;;;;;;;7.13;5.03;;;;;;;;;;5002141;28;20117;-67
2022/03/15 08:51:01;;;;;;;39.95;14.35;;;;;;;;;;5012779;28;20029;-68
2022/03/15 08:53:27;;;;;;;19.63;8.93;;;;;;;;;;5017367;28;20069;-68
2022/03/15 08:55:55;;;;;;;6.97;4.15;;;;;;;;;;5010442;28;20156;-68
2022/03/15 08:58:21;;;;;;;10.57;6.10;;;;;;;;;;5008619;28;20080;-68
2022/03/15 09:00:48;;;;;;;15.82;7.15;;;;;;;;;;5014393;28;20036;-70
2022/03/15 09:03:14;;;;;;;5.50;3.58;;;;;;;;;;5019292;28;20541;-69
2022/03/15 09:05:41;;;;;;;7.70;3.85;;;;;;;;;;5010771;28;20033;-68
2022/03/15 09:08:07;;;;;;;10.82;4.10;;;;;;;;;;5012717;28;20045;-68
2022/03/15 09:10:33;;;;;;;12.68;6.80;;;;;;;;;;5015188;28;20034;-71
2022/03/15 09:12:59;;;;;;;13.82;8.18;;;;;;;;;;5016170;28;20081;-70
2022/03/15 09:15:25;;;;;;;7.10;4.68;;;;;;;;;;5017014;28;20053;-68
2022/03/15 09:17:51;;;;;;;12.63;2.90;;;;;;;;;;5007846;28;20497;-68
2022/03/15 09:20:17;;;;;;;8.90;4.22;;;;;;;;;;5008462;28;20037;-68
2022/03/15 09:22:43;;;;;;;7.00;4.40;;;;;;;;;;5014185;28;20040;-69
2022/03/15 09:25:10;;;;;;;6.07;3.58;;;;;;;;;;5014326;28;20076;-67
2022/03/15 09:27:36;;;;;;;3.90;3.30;;;;;;;;;;5004038;28;20047;-67
2022/03/15 09:30:02;;;;;;;7.65;3.72;;;;;;;;;;5016871;28;20037;-68
2022/03/15 09:32:28;;;;;;;8.57;4.85;;;;;;;;;;5015210;28;20272;-68
2022/03/15 09:34:55;;;;;;;4.50;3.28;;;;;;;;;;5031358;28;20029;-68
2022/03/15 09:37:21;;;;;;;5.63;3.10;;;;;;;;;;5004878;28;20478;-70
2022/03/15 09:39:47;;;;;;;10.13;5.03;;;;;;;;;;5014951;28;20021;-70
2022/03/15 09:42:13;;;;;;;12.73;4.35;;;15.90;99.90;;;;;;5015644;28;20049;-71
2022/03/15 09:44:40;;;;;;;7.43;4.18;;;;;;;;;;5016376;28;20022;-71
2022/03/15 09:47:07;;;;;;;9.90;4.53;;;;;;;;;;5007046;28;20030;-70
2022/03/15 09:49:34;;;;;;;3.47;2.53;;;16.10;99.90;;;;;;5016414;28;20033;-70
2022/03/15 09:52:00;;;;;;;7.25;2.85;;;;;;;;;;5013893;28;20292;-71
2022/03/15 09:54:27;;;;;;;3.10;1.67;;;;;;;;;;5015801;28;20036;-70
2022/03/15 09:56:53;;;;;;;1.85;1.20;;;;;;;;;;5007308;28;20108;-71
2022/03/15 09:59:21;;;;;;;3.30;2.90;;;;;;;;;;5015542;28;20380;-70
2022/03/15 10:01:50;;;;;;;2.42;1.67;;;;;;;;;;5012650;28;20037;-69
2022/03/15 10:04:17;;;;;;;2.83;1.38;;;;;;;;;;5014794;28;20110;-70
2022/03/15 10:06:43;;;;;;;2.30;1.48;;;;;;;;;;5006362;28;20030;-67
2022/03/15 10:09:09;;;;;;;1.92;1.13;;;16.80;78.40;;;;;;5017421;28;20096;-68
2022/03/15 10:11:37;;;;;;;6.80;1.80;;;;;;;;;;5012958;28;20104;-71
2022/03/15 10:14:04;;;;;;;2.38;1.27;;;;;;;;;;5013935;28;20030;-70
2022/03/15 10:16:34;;;;;;;1.10;0.73;;;;;;;;;;5004398;28;20038;-70
2022/03/15 10:19:00;;;;;;;5.38;1.10;;;;;;;;;;5014884;28;20052;-72
2022/03/15 10:21:39;;;;;;;1.83;0.82;;;;;;;;;;5014126;28;20041;-67
2022/03/15 10:24:07;;;;;;;2.47;1.52;;;;;;;;;;5013301;28;20487;-72
2022/03/15 10:26:37;;;;;;;3.53;1.55;;;;;;;;;;5005599;28;20026;-70
2022/03/15 10:29:03;;;;;;;1.95;0.98;;;;;;;;;;5012556;28;20060;-69
2022/03/15 10:31:29;;;;;;;3.05;0.98;;;;;;;;;;5013344;28;20083;-69
2022/03/15 10:34:01;;;;;;;2.38;1.67;;;;;;;;;;5014281;28;20022;-69
2022/03/15 10:36:27;;;;;;;3.13;1.67;;;;;;;;;;5005180;28;20432;-70
2022/03/15 10:38:53;;;;;;;8.55;3.20;;;17.10;82.20;;;;;;5015392;28;20018;-72
2022/03/15 10:41:20;;;;;;;5.95;2.20;;;17.40;80.30;;;;;;5014290;28;20037;-67
2022/03/15 10:43:54;;;;;;;4.85;2.00;;;;;;;;;;5011839;28;20084;-70
2022/03/15 10:46:23;;;;;;;1.98;1.27;;;;;;;;;;5004720;28;20407;-71
2022/03/15 10:48:53;;;;;;;3.13;1.35;;;;;;;;;;5013363;28;20087;-70
2022/03/15 10:51:20;;;;;;;3.10;2.67;;;;;;;;;;5028666;28;20057;-70
2022/03/15 10:53:47;;;;;;;4.13;1.27;;;;;;;;;;5013133;28;20077;-69
2022/03/15 10:56:13;;;;;;;4.60;1.58;;;;;;;;;;5001908;28;20034;-70
2022/03/15 10:58:46;;;;;;;1.42;0.98;;;;;;;;;;5011219;28;20035;-69
2022/03/15 11:01:12;;;;;;;4.30;1.55;;;;;;;;;;5011610;28;20033;-69
2022/03/15 11:03:39;;;;;;;2.33;1.48;;;;;;;;;;5010467;28;20128;-69
2022/03/15 11:06:08;;;;;;;6.18;1.10;;;;;;;;;;5005166;28;20030;-71
2022/03/15 11:08:36;;;;;;;3.10;1.27;;;;;;;;;;5011363;28;20054;-67
2022/03/15 11:11:08;;;;;;;1.85;1.10;;;;;;;;;;5013215;28;20096;-67
2022/03/15 11:13:34;;;;;;;1.83;1.52;;;;;;;;;;5013372;28;20037;-67
2022/03/15 11:16:03;;;;;;;6.43;0.95;;;;;;;;;;5005185;28;20684;-68
2022/03/15 11:18:30;;;;;;;0.95;0.90;;;;;;;;;;5011651;28;20084;-66
2022/03/15 11:20:59;;;;;;;2.65;1.00;;;16.70;64.20;;;;;;5013294;28;20509;-68
2022/03/15 11:23:25;;;;;;;5.07;1.15;;;;;;;;;;5012187;28;20076;-67
2022/03/15 11:26:04;;;;;;;4.10;2.33;;;;;;;;;;5005572;28;20774;-67
2022/03/15 11:28:32;;;;;;;7.63;2.60;;;;;;;;;;5013232;28;20029;-67
2022/03/15 11:30:59;;;;;;;2.90;1.38;;;16.60;64.40;;;;;;5012572;28;20132;-68
2022/03/15 11:33:26;;;;;;;4.07;1.75;;;;;;;;;;5012010;28;20037;-65
2022/03/15 11:35:52;;;;;;;2.90;1.70;;;;;;;;;;5008974;28;20034;-67
2022/03/15 11:38:19;;;;;;;1.05;1.00;;;;;;;;;;5010530;28;20212;-66
2022/03/15 11:40:46;;;;;;;3.42;2.42;;;;;;;;;;5012425;28;20120;-68
2022/03/15 11:43:33;;;;;;;3.28;1.77;;;;;;;;;;5012368;28;20175;-67
2022/03/15 11:46:07;;;;;;;3.30;1.90;;;;;;;;;;5005804;28;20848;-67
2022/03/15 11:48:52;;;;;;;2.50;1.55;;;;;;;;;;5012114;28;20117;-68
2022/03/15 11:51:38;;;;;;;7.75;2.05;;;;;;;;;;5012079;28;20032;-67
2022/03/15 11:54:24;;;;;;;3.67;1.37;;;;;;;;;;5015191;28;20030;-68
2022/03/15 11:56:55;;;;;;;1.90;0.90;;;;;;;;;;5005104;28;20542;-66
2022/03/15 11:59:21;;;;;;;2.67;1.58;;;17.50;85.50;;;;;;5013659;28;20025;-66
2022/03/15 12:01:51;;;;;;;5.03;1.08;;;;;;;;;;5013331;28;20061;-66
2022/03/15 12:04:22;;;;;;;2.92;2.17;;;;;;;;;;5013798;28;20044;-68
2022/03/15 12:06:50;;;;;;;5.10;2.35;;;17.30;62.80;;;;;;5003064;28;20517;-67
2022/03/15 12:09:20;;;;;;;1.60;1.23;;;;;;;;;;5015832;28;20192;-69
2022/03/15 12:11:46;;;;;;;1.90;0.75;;;;;;;;;;5013065;28;20140;-70
2022/03/15 12:14:19;;;;;;;1.60;1.35;;;;;;;;;;5000517;28;20109;-70
2022/03/15 12:16:47;;;;;;;3.55;0.93;;;;;;;;;;4996450;28;20033;-70
2022/03/15 12:19:30;;;;;;;2.28;1.42;;;;;;;;;;5006182;28;20487;-70
2022/03/15 12:21:57;;;;;;;2.17;1.13;;;;;;;;;;4993400;28;20084;-69
2022/03/15 12:24:34;;;;;;;1.88;1.23;;;;;;;;;;5000074;28;20018;-67
2022/03/15 12:27:01;;;;;;;11.35;1.42;;;;;;;;;;5010257;28;20064;-71
2022/03/15 12:29:28;;;;;;;2.65;1.20;;;;;;;;;;5001274;28;20068;-69
2022/03/15 12:31:54;;;;;;;3.13;1.00;;;;;;;;;;4999378;28;20022;-69
2022/03/15 12:34:20;;;;;;;3.53;1.25;;;;;;;;;;5006919;28;20069;-70
2022/03/15 12:36:58;;;;;;;3.60;1.38;;;;;;;;;;5001293;28;20834;-71
2022/03/15 12:39:26;;;;;;;2.42;1.10;;;;;;;;;;5004194;28;20450;-70
2022/03/15 12:41:52;;;;;;;;;;;;;;;;;;5009107;28;20018;-72
2022/03/15 12:44:38;;;;;;;2.72;1.25;;;;;;;;;;5003389;28;20019;-73
2022/03/15 12:47:06;;;;;;;1.95;1.40;;;;;;;;;;5005582;28;20037;-73
2022/03/15 12:49:32;;;;;;;4.03;1.10;;;;;;;;;;4994594;28;20041;-67
2022/03/15 12:52:08;;;;;;;4.15;0.95;;;;;;;;;;5006093;28;20038;-69
2022/03/15 12:54:34;;;;;;;8.20;1.55;;;;;;;;;;5008153;28;20040;-68
2022/03/15 12:57:07;;;;;;;1.33;0.75;;;;;;;;;;4997710;28;20125;-68
2022/03/15 12:59:33;;;;;;;5.30;1.48;;;17.50;84.30;;;;;;5018714;28;20092;-68
2022/03/15 13:01:59;;;;;;;1.30;1.08;;;;;;;;;;5005823;28;20037;-68
2022/03/15 13:04:25;;;;;;;4.05;0.73;;;;;;;;;;4999171;28;20025;-71
2022/03/15 13:06:51;;;;;;;1.55;1.30;;;;;;;;;;5005234;28;20026;-73
2022/03/15 13:09:27;;;;;;;2.15;1.00;;;;;;;;;;5010092;28;20060;-70
2022/03/15 13:11:56;;;;;;;2.47;1.00;;;17.10;63.50;;;;;;5008282;28;20053;-71
2022/03/15 13:14:27;;;;;;;2.03;1.08;;;;;;;;;;5005803;28;20026;-70
2022/03/15 13:16:54;;;;;;;6.47;2.10;;;;;;;;;;5005891;28;20029;-75
2022/03/15 13:19:26;;;;;;;2.43;1.10;;;;;;;;;;5006321;28;20026;-69
2022/03/15 13:21:52;;;;;;;2.80;1.20;;;;;;;;;;5003318;28;20277;-70
2022/03/15 13:24:23;;;;;;;2.40;1.45;;;;;;;;;;5007389;28;20033;-73
2022/03/15 13:26:54;;;;;;;3.25;1.40;;;17.00;63.70;;;;;;5006212;28;20030;-74
2022/03/15 13:29:24;;;;;;;3.53;1.65;;;;;;;;;;5003546;28;20057;-66
2022/03/15 13:31:50;;;;;;;1.23;0.90;;;;;;;;;;5005776;28;20046;-67
2022/03/15 13:34:22;;;;;;;2.15;1.40;;;;;;;;;;5005727;28;20024;-66
2022/03/15 13:36:48;;;;;;;2.78;1.08;;;;;;;;;;5006247;28;20050;-67
2022/03/15 13:39:15;;;;;;;3.75;1.05;;;;;;;;;;5008982;28;20033;-70
2022/03/15 13:41:42;;;;;;;;;;;17.40;61.80;;;;;;5004465;28;20045;-68
2022/03/15 13:44:17;;;;;;;1.10;0.98;;;;;;;;;;5004556;28;19917;-68
2022/03/15 13:46:44;;;;;;;2.78;1.05;;;;;;;;;;5005959;28;20779;-67
2022/03/15 13:49:20;;;;;;;1.73;0.98;;;;;;;;;;5004329;28;20077;-66
2022/03/15 13:51:47;;;;;;;8.23;1.30;;;;;;;;;;5005563;28;20034;-67
2022/03/15 13:54:14;;;;;;;5.13;1.23;;;;;;;;;;4993013;28;20030;-73
2022/03/15 13:56:47;;;;;;;2.45;1.83;;;;;;;;;;5003982;28;20442;-68
2022/03/15 13:59:15;;;;;;;7.50;2.35;;;;;;;;;;5004092;28;20044;-69
2022/03/15 14:01:42;;;;;;;1.88;0.88;;;;;;;;;;5001258;28;20113;-68
2022/03/15 14:04:13;;;;;;;4.57;2.45;;;;;;;;;;5003584;28;20034;-70
2022/03/15 14:06:41;;;;;;;3.45;1.73;;;;;;;;;;5017508;28;20026;-69
2022/03/15 14:09:09;;;;;;;2.72;1.20;;;;;;;;;;5003535;28;20050;-71
2022/03/15 14:11:44;;;;;;;9.43;1.35;;;;;;;;;;5003919;28;20057;-69
2022/03/15 14:14:11;;;;;;;1.73;0.88;;;;;;;;;;5001668;28;20373;-71
2022/03/15 14:16:51;;;;;;;6.85;2.03;;;;;;;;;;4996548;28;20029;-74
2022/03/15 14:19:19;;;;;;;1.77;1.45;;;;;;;;;;5003959;28;20457;-66
2022/03/15 14:21:50;;;;;;;1.48;1.38;;;;;;;;;;4997503;28;20499;-69